Esperantina, Brazil
Current Conditions -  °F | °C
As of 4:00 PM on Thursday 30 Oct 2014 (Local Time) from SBMA Reporting Station
Scattered Clouds Scattered Clouds  
Wind Chill: 93°   Ceiling: Unl
Heat Index: 103°   Visibility: 6mi
Dew Point: 73°   Wind: 5mph
Humidity: 52%   Direction: 40°NE
Pressure: 29.74"   Gusts: NA
Location:  5.34°S, 48.51°W
Report Text: SBMA 301900Z 04004KT 9999 SCT029 34/23 Q1007
Loading
Personal Weather Stations






























Interactive Weather Map
Tropical Storm Tracking
New forecast layout! Learn more

10-Day Weather Forecast

Advertisements
Track Severe Weather on mobile